sensor_id;sensor_type;location;lat;lon;timestamp;pressure;altitude;pressure_sealevel;temperature;humidity
6680;BME280;3376;42.664;23.346;2023-02-18T00:00:12;95276.03;;;4.96;68.17
6680;BME280;3376;42.664;23.346;2023-02-18T00:02:43;95273.03;;;4.91;67.43
6680;BME280;3376;42.664;23.346;2023-02-18T00:05:09;95279.06;;;5.01;66.96
6680;BME280;3376;42.664;23.346;2023-02-18T00:07:38;95267.84;;;4.82;68.66
6680;BME280;3376;42.664;23.346;2023-02-18T00:10:07;95266.59;;;4.65;68.98
6680;BME280;3376;42.664;23.346;2023-02-18T00:12:34;95252.50;;;4.59;69.88
6680;BME280;3376;42.664;23.346;2023-02-18T00:15:01;95183.69;;;4.33;69.61
6680;BME280;3376;42.664;23.346;2023-02-18T00:17:29;95246.97;;;4.75;69.04
6680;BME280;3376;42.664;23.346;2023-02-18T00:19:57;95249.03;;;4.81;69.86
6680;BME280;3376;42.664;23.346;2023-02-18T00:22:24;95234.09;;;4.86;69.24
6680;BME280;3376;42.664;23.346;2023-02-18T00:24:51;95238.97;;;4.89;68.46
6680;BME280;3376;42.664;23.346;2023-02-18T00:27:18;95237.13;;;4.80;68.15
6680;BME280;3376;42.664;23.346;2023-02-18T00:29:44;95150.50;;;4.20;68.91
6680;BME280;3376;42.664;23.346;2023-02-18T00:32:11;95230.34;;;4.58;69.53
6680;BME280;3376;42.664;23.346;2023-02-18T00:34:38;95214.75;;;4.50;70.05
6680;BME280;3376;42.664;23.346;2023-02-18T00:37:06;95203.16;;;4.56;69.88
6680;BME280;3376;42.664;23.346;2023-02-18T00:39:33;95208.56;;;4.53;69.61
6680;BME280;3376;42.664;23.346;2023-02-18T00:42:00;95213.81;;;4.51;69.69
6680;BME280;3376;42.664;23.346;2023-02-18T00:44:26;95210.56;;;4.49;69.85
6680;BME280;3376;42.664;23.346;2023-02-18T00:46:53;95211.25;;;4.51;69.89
6680;BME280;3376;42.664;23.346;2023-02-18T00:49:20;95205.06;;;4.54;69.44
6680;BME280;3376;42.664;23.346;2023-02-18T00:51:46;95210.28;;;4.32;71.05
6680;BME280;3376;42.664;23.346;2023-02-18T00:54:15;95220.06;;;4.27;71.68
6680;BME280;3376;42.664;23.346;2023-02-18T00:56:41;95218.25;;;4.07;71.95
6680;BME280;3376;42.664;23.346;2023-02-18T00:59:08;95199.41;;;3.86;73.44
6680;BME280;3376;42.664;23.346;2023-02-18T01:01:35;95201.28;;;3.84;74.04
6680;BME280;3376;42.664;23.346;2023-02-18T01:04:02;95211.03;;;3.90;73.75
6680;BME280;3376;42.664;23.346;2023-02-18T01:06:28;95215.59;;;3.86;74.46
6680;BME280;3376;42.664;23.346;2023-02-18T01:08:55;95201.03;;;3.87;73.75
6680;BME280;3376;42.664;23.346;2023-02-18T01:11:24;95195.34;;;3.72;74.15
6680;BME280;3376;42.664;23.346;2023-02-18T01:13:51;95219.06;;;3.96;73.98
6680;BME280;3376;42.664;23.346;2023-02-18T01:16:17;95170.31;;;3.53;74.53
6680;BME280;3376;42.664;23.346;2023-02-18T01:18:44;95214.78;;;3.63;75.33
6680;BME280;3376;42.664;23.346;2023-02-18T01:21:11;95207.94;;;3.75;75.39
6680;BME280;3376;42.664;23.346;2023-02-18T01:23:39;95199.53;;;3.62;76.16
6680;BME280;3376;42.664;23.346;2023-02-18T01:26:07;95198.84;;;3.60;77.03
6680;BME280;3376;42.664;23.346;2023-02-18T01:28:35;95191.63;;;3.54;77.72
6680;BME280;3376;42.664;23.346;2023-02-18T01:31:04;95211.53;;;3.84;76.59
6680;BME280;3376;42.664;23.346;2023-02-18T01:33:32;95204.88;;;3.81;76.47
6680;BME280;3376;42.664;23.346;2023-02-18T01:35:59;95201.03;;;3.87;76.53
6680;BME280;3376;42.664;23.346;2023-02-18T01:38:25;95183.09;;;3.87;74.82
6680;BME280;3376;42.664;23.346;2023-02-18T01:40:52;95205.91;;;4.01;74.42
6680;BME280;3376;42.664;23.346;2023-02-18T01:43:20;95189.50;;;3.92;74.42
6680;BME280;3376;42.664;23.346;2023-02-18T01:45:56;95203.94;;;4.04;74.10
6680;BME280;3376;42.664;23.346;2023-02-18T01:48:27;95196.88;;;3.86;74.10
6680;BME280;3376;42.664;23.346;2023-02-18T01:50:59;95199.88;;;3.80;73.56
6680;BME280;3376;42.664;23.346;2023-02-18T01:53:31;95223.41;;;3.63;75.38
6680;BME280;3376;42.664;23.346;2023-02-18T01:56:01;95178.25;;;3.28;76.84
6680;BME280;3376;42.664;23.346;2023-02-18T01:58:29;95217.25;;;3.65;76.96
6680;BME280;3376;42.664;23.346;2023-02-18T02:00:57;95230.97;;;3.64;76.46
6680;BME280;3376;42.664;23.346;2023-02-18T02:03:24;95219.22;;;3.50;76.00
6680;BME280;3376;42.664;23.346;2023-02-18T02:05:51;95211.31;;;3.42;77.90
6680;BME280;3376;42.664;23.346;2023-02-18T02:08:18;95209.69;;;3.52;78.04
6680;BME280;3376;42.664;23.346;2023-02-18T02:11:05;95199.88;;;3.46;78.40
6680;BME280;3376;42.664;23.346;2023-02-18T02:13:45;95207.94;;;3.53;77.53
6680;BME280;3376;42.664;23.346;2023-02-18T02:16:23;95205.34;;;3.31;78.61
6680;BME280;3376;42.664;23.346;2023-02-18T02:19:01;95207.31;;;3.27;79.28
6680;BME280;3376;42.664;23.346;2023-02-18T02:21:57;95179.97;;;3.06;79.89
6680;BME280;3376;42.664;23.346;2023-02-18T02:27:40;95216.25;;;3.11;80.48
6680;BME280;3376;42.664;23.346;2023-02-18T02:33:38;95204.25;;;3.00;80.96
6680;BME280;3376;42.664;23.346;2023-02-18T02:36:14;95192.75;;;3.06;81.29
6680;BME280;3376;42.664;23.346;2023-02-18T02:38:54;95171.84;;;3.12;80.57
6680;BME280;3376;42.664;23.346;2023-02-18T02:41:31;95193.13;;;3.34;79.64
6680;BME280;3376;42.664;23.346;2023-02-18T02:44:06;95136.09;;;3.10;79.85
6680;BME280;3376;42.664;23.346;2023-02-18T02:46:39;95182.66;;;3.48;79.79
6680;BME280;3376;42.664;23.346;2023-02-18T02:49:14;95173.03;;;3.41;80.07
6680;BME280;3376;42.664;23.346;2023-02-18T02:51:49;95180.00;;;3.39;80.66
6680;BME280;3376;42.664;23.346;2023-02-18T02:54:21;95177.19;;;3.42;79.68
6680;BME280;3376;42.664;23.346;2023-02-18T02:56:48;95180.00;;;3.39;79.26
6680;BME280;3376;42.664;23.346;2023-02-18T02:59:18;95168.22;;;3.36;79.35
6680;BME280;3376;42.664;23.346;2023-02-18T03:02:04;95195.22;;;3.51;78.47
6680;BME280;3376;42.664;23.346;2023-02-18T03:04:53;95195.47;;;3.37;78.74
6680;BME280;3376;42.664;23.346;2023-02-18T03:07:38;95173.81;;;3.19;78.54
6680;BME280;3376;42.664;23.346;2023-02-18T03:10:24;95204.31;;;3.33;78.64
6680;BME280;3376;42.664;23.346;2023-02-18T03:13:02;95198.97;;;3.25;78.73
6680;BME280;3376;42.664;23.346;2023-02-18T03:15:37;95158.34;;;3.10;78.94
6680;BME280;3376;42.664;23.346;2023-02-18T03:18:09;95152.41;;;3.09;78.94
6680;BME280;3376;42.664;23.346;2023-02-18T03:20:45;95180.34;;;3.23;80.38
6680;BME280;3376;42.664;23.346;2023-02-18T03:23:19;95201.75;;;3.33;79.08
6680;BME280;3376;42.664;23.346;2023-02-18T03:25:49;95213.25;;;3.28;78.64
6680;BME280;3376;42.664;23.346;2023-02-18T03:28:18;95211.72;;;3.14;79.62
6680;BME280;3376;42.664;23.346;2023-02-18T03:30:48;95228.75;;;3.15;79.72
6680;BME280;3376;42.664;23.346;2023-02-18T03:33:19;95227.31;;;3.11;80.51
6680;BME280;3376;42.664;23.346;2023-02-18T03:35:51;95242.69;;;3.11;80.06
6680;BME280;3376;42.664;23.346;2023-02-18T03:38:23;95195.75;;;2.89;80.16
6680;BME280;3376;42.664;23.346;2023-02-18T03:40:52;95245.94;;;3.24;79.63
6680;BME280;3376;42.664;23.346;2023-02-18T03:43:19;95238.03;;;3.27;79.50
6680;BME280;3376;42.664;23.346;2023-02-18T03:45:46;95238.03;;;3.27;79.42
6680;BME280;3376;42.664;23.346;2023-02-18T03:48:13;95252.72;;;3.36;79.05
6680;BME280;3376;42.664;23.346;2023-02-18T03:50:40;95209.19;;;3.25;78.20
6680;BME280;3376;42.664;23.346;2023-02-18T03:53:07;95258.63;;;3.26;79.98
6680;BME280;3376;42.664;23.346;2023-02-18T03:55:35;95259.09;;;3.20;80.47
6680;BME280;3376;42.664;23.346;2023-02-18T03:58:02;95257.81;;;3.14;80.45
6680;BME280;3376;42.664;23.346;2023-02-18T04:00:29;95246.50;;;3.06;80.97
6680;BME280;3376;42.664;23.346;2023-02-18T04:02:56;95246.97;;;3.11;81.16
6680;BME280;3376;42.664;23.346;2023-02-18T04:05:23;95240.25;;;3.10;81.08
6680;BME280;3376;42.664;23.346;2023-02-18T04:07:51;95232.22;;;3.14;81.18
6680;BME280;3376;42.664;23.346;2023-02-18T04:10:18;95237.53;;;3.00;81.09
6680;BME280;3376;42.664;23.346;2023-02-18T04:12:46;95228.47;;;2.96;81.17
6680;BME280;3376;42.664;23.346;2023-02-18T04:15:13;95230.91;;;2.98;81.77
6680;BME280;3376;42.664;23.346;2023-02-18T04:17:40;95200.75;;;2.79;82.07
6680;BME280;3376;42.664;23.346;2023-02-18T04:20:07;95225.66;;;2.99;82.22
6680;BME280;3376;42.664;23.346;2023-02-18T04:22:34;95194.44;;;2.83;82.10
6680;BME280;3376;42.664;23.346;2023-02-18T04:25:01;95216.56;;;2.95;81.80
6680;BME280;3376;42.664;23.346;2023-02-18T04:27:28;95212.28;;;2.96;82.12
6680;BME280;3376;42.664;23.346;2023-02-18T04:29:56;95212.28;;;3.07;81.53
6680;BME280;3376;42.664;23.346;2023-02-18T04:32:23;95213.69;;;3.11;81.58
6680;BME280;3376;42.664;23.346;2023-02-18T04:34:50;95200.31;;;3.07;81.16
6680;BME280;3376;42.664;23.346;2023-02-18T04:37:17;95184.13;;;3.07;81.71
6680;BME280;3376;42.664;23.346;2023-02-18T04:39:44;95206.06;;;3.22;80.80
6680;BME280;3376;42.664;23.346;2023-02-18T04:42:11;95070.13;;;2.48;80.46
6680;BME280;3376;42.664;23.346;2023-02-18T04:44:38;95121.75;;;2.64;79.80
6680;BME280;3376;42.664;23.346;2023-02-18T04:47:07;95215.00;;;3.16;80.49
6680;BME280;3376;42.664;23.346;2023-02-18T04:49:34;95215.81;;;3.17;80.60
6680;BME280;3376;42.664;23.346;2023-02-18T04:52:01;95217.78;;;3.24;80.29
6680;BME280;3376;42.664;23.346;2023-02-18T04:54:28;95211.16;;;3.11;80.35
6680;BME280;3376;42.664;23.346;2023-02-18T04:56:55;95211.28;;;3.20;80.25
6680;BME280;3376;42.664;23.346;2023-02-18T04:59:22;95201.25;;;3.06;80.11
6680;BME280;3376;42.664;23.346;2023-02-18T05:01:49;95228.16;;;3.23;79.97
6680;BME280;3376;42.664;23.346;2023-02-18T05:04:17;95201.13;;;3.08;80.19
6680;BME280;3376;42.664;23.346;2023-02-18T05:06:44;95237.25;;;3.38;79.82
6680;BME280;3376;42.664;23.346;2023-02-18T05:09:11;95247.47;;;3.27;79.48
6680;BME280;3376;42.664;23.346;2023-02-18T05:11:38;95242.13;;;3.30;78.94
6680;BME280;3376;42.664;23.346;2023-02-18T05:14:05;95246.06;;;3.23;79.47
6680;BME280;3376;42.664;23.346;2023-02-18T05:16:32;95201.47;;;2.92;80.16
6680;BME280;3376;42.664;23.346;2023-02-18T05:18:59;95227.16;;;3.02;81.67
6680;BME280;3376;42.664;23.346;2023-02-18T05:21:27;95228.06;;;2.90;82.38
6680;BME280;3376;42.664;23.346;2023-02-18T05:23:54;95169.13;;;2.46;83.30
6680;BME280;3376;42.664;23.346;2023-02-18T05:26:21;95195.88;;;2.53;84.25
6680;BME280;3376;42.664;23.346;2023-02-18T05:28:48;95225.38;;;2.80;84.48
6680;BME280;3376;42.664;23.346;2023-02-18T05:31:15;95217.22;;;2.75;84.36
6680;BME280;3376;42.664;23.346;2023-02-18T05:33:42;95225.00;;;2.74;84.34
6680;BME280;3376;42.664;23.346;2023-02-18T05:36:09;95216.41;;;2.75;84.72
6680;BME280;3376;42.664;23.346;2023-02-18T05:38:37;95214.72;;;2.86;84.82
6680;BME280;3376;42.664;23.346;2023-02-18T05:41:04;95208.00;;;2.96;84.49
6680;BME280;3376;42.664;23.346;2023-02-18T05:43:31;95213.94;;;3.08;84.18
6680;BME280;3376;42.664;23.346;2023-02-18T05:46:18;95205.78;;;3.14;83.57
6680;BME280;3376;42.664;23.346;2023-02-18T05:48:45;95224.81;;;3.44;82.26
6680;BME280;3376;42.664;23.346;2023-02-18T05:51:12;95202.91;;;3.29;82.03
6680;BME280;3376;42.664;23.346;2023-02-18T05:53:41;95222.22;;;3.33;81.67
6680;BME280;3376;42.664;23.346;2023-02-18T05:56:08;95229.94;;;3.55;79.13
6680;BME280;3376;42.664;23.346;2023-02-18T05:58:35;95254.06;;;3.75;79.41
6680;BME280;3376;42.664;23.346;2023-02-18T06:01:02;95253.56;;;3.81;79.88
6680;BME280;3376;42.664;23.346;2023-02-18T06:03:29;95238.06;;;3.94;79.27
6680;BME280;3376;42.664;23.346;2023-02-18T06:05:56;95257.41;;;4.20;77.84
6680;BME280;3376;42.664;23.346;2023-02-18T06:08:23;95256.78;;;4.27;77.68
6680;BME280;3376;42.664;23.346;2023-02-18T06:10:51;95244.75;;;4.39;76.55
6680;BME280;3376;42.664;23.346;2023-02-18T06:13:18;95228.06;;;4.44;75.96
6680;BME280;3376;42.664;23.346;2023-02-18T06:15:45;95218.34;;;4.16;74.74
6680;BME280;3376;42.664;23.346;2023-02-18T06:18:11;95241.00;;;4.54;74.90
6680;BME280;3376;42.664;23.346;2023-02-18T06:20:38;95236.94;;;4.72;73.98
6680;BME280;3376;42.664;23.346;2023-02-18T06:23:06;95243.47;;;4.76;75.61
6680;BME280;3376;42.664;23.346;2023-02-18T06:25:33;95235.69;;;4.66;74.93
6680;BME280;3376;42.664;23.346;2023-02-18T06:28:01;95229.78;;;4.55;73.94
6680;BME280;3376;42.664;23.346;2023-02-18T06:30:28;95230.09;;;4.61;73.28
6680;BME280;3376;42.664;23.346;2023-02-18T06:32:55;95229.25;;;4.72;73.04
6680;BME280;3376;42.664;23.346;2023-02-18T06:35:22;95227.25;;;4.75;73.45
6680;BME280;3376;42.664;23.346;2023-02-18T06:37:49;95220.19;;;4.89;72.17
6680;BME280;3376;42.664;23.346;2023-02-18T06:40:16;95225.44;;;4.87;72.28
6680;BME280;3376;42.664;23.346;2023-02-18T06:42:43;95225.59;;;5.06;73.19
6680;BME280;3376;42.664;23.346;2023-02-18T06:45:12;95231.72;;;5.35;72.37
6680;BME280;3376;42.664;23.346;2023-02-18T06:47:39;95230.69;;;5.47;71.24
6680;BME280;3376;42.664;23.346;2023-02-18T06:50:06;95246.59;;;5.82;69.35
6680;BME280;3376;42.664;23.346;2023-02-18T06:52:34;95174.66;;;5.71;69.22
6680;BME280;3376;42.664;23.346;2023-02-18T06:55:03;95231.31;;;6.30;68.23
6680;BME280;3376;42.664;23.346;2023-02-18T06:57:30;95231.59;;;6.37;66.84
6680;BME280;3376;42.664;23.346;2023-02-18T06:59:57;95203.94;;;6.20;65.74
6680;BME280;3376;42.664;23.346;2023-02-18T07:02:25;95211.41;;;6.42;66.44
6680;BME280;3376;42.664;23.346;2023-02-18T07:04:52;95214.84;;;6.61;64.85
6680;BME280;3376;42.664;23.346;2023-02-18T07:07:19;95233.25;;;7.04;65.04
6680;BME280;3376;42.664;23.346;2023-02-18T07:09:46;95230.47;;;7.44;64.41
6680;BME280;3376;42.664;23.346;2023-02-18T07:12:13;95219.69;;;8.04;61.02
6680;BME280;3376;42.664;23.346;2023-02-18T07:14:40;95239.47;;;8.50;59.26
6680;BME280;3376;42.664;23.346;2023-02-18T07:17:07;95217.94;;;8.77;58.13
6680;BME280;3376;42.664;23.346;2023-02-18T07:19:35;95229.88;;;8.78;55.41
6680;BME280;3376;42.664;23.346;2023-02-18T07:22:02;95209.66;;;8.91;54.78
6680;BME280;3376;42.664;23.346;2023-02-18T07:24:29;95205.75;;;8.69;55.83
6680;BME280;3376;42.664;23.346;2023-02-18T07:26:56;95209.22;;;8.78;54.40
6680;BME280;3376;42.664;23.346;2023-02-18T07:29:23;95225.16;;;8.91;54.17
6680;BME280;3376;42.664;23.346;2023-02-18T07:31:50;95214.59;;;9.02;54.40
6680;BME280;3376;42.664;23.346;2023-02-18T07:34:16;95230.09;;;9.19;53.35
6680;BME280;3376;42.664;23.346;2023-02-18T07:36:45;95230.22;;;9.35;52.61
6680;BME280;3376;42.664;23.346;2023-02-18T07:39:12;95233.97;;;9.41;56.98
6680;BME280;3376;42.664;23.346;2023-02-18T07:41:38;95244.03;;;9.44;58.42
6680;BME280;3376;42.664;23.346;2023-02-18T07:44:05;95247.50;;;9.35;66.92
6680;BME280;3376;42.664;23.346;2023-02-18T07:46:32;95243.66;;;9.39;56.45
6680;BME280;3376;42.664;23.346;2023-02-18T07:48:59;95247.56;;;9.43;60.77
6680;BME280;3376;42.664;23.346;2023-02-18T07:51:26;95246.94;;;9.67;56.80
6680;BME280;3376;42.664;23.346;2023-02-18T07:53:54;95255.03;;;9.72;55.15
6680;BME280;3376;42.664;23.346;2023-02-18T07:56:21;95252.75;;;9.69;57.17
6680;BME280;3376;42.664;23.346;2023-02-18T07:58:47;95253.09;;;9.74;51.37
6680;BME280;3376;42.664;23.346;2023-02-18T08:01:14;95260.41;;;9.52;53.73
6680;BME280;3376;42.664;23.346;2023-02-18T08:03:42;95238.53;;;9.47;52.66
6680;BME280;3376;42.664;23.346;2023-02-18T08:06:19;95163.28;;;9.07;54.37
6680;BME280;3376;42.664;23.346;2023-02-18T08:08:46;95221.25;;;10.07;56.91
6680;BME280;3376;42.664;23.346;2023-02-18T08:11:15;95229.63;;;10.84;52.14
6680;BME280;3376;42.664;23.346;2023-02-18T08:13:41;95208.25;;;11.54;49.84
6680;BME280;3376;42.664;23.346;2023-02-18T08:16:09;95233.56;;;12.62;52.29
6680;BME280;3376;42.664;23.346;2023-02-18T08:18:35;95237.97;;;12.84;51.86
6680;BME280;3376;42.664;23.346;2023-02-18T08:21:02;95235.97;;;12.63;46.90
6680;BME280;3376;42.664;23.346;2023-02-18T08:23:29;95209.69;;;12.58;42.89
6680;BME280;3376;42.664;23.346;2023-02-18T08:25:56;95224.22;;;12.53;44.67
6680;BME280;3376;42.664;23.346;2023-02-18T08:28:42;95087.88;;;11.63;43.20
6680;BME280;3376;42.664;23.346;2023-02-18T08:31:15;95232.06;;;12.67;43.70
6680;BME280;3376;42.664;23.346;2023-02-18T08:33:42;95245.09;;;12.29;42.38
6680;BME280;3376;42.664;23.346;2023-02-18T08:36:09;95223.56;;;12.04;42.49
6680;BME280;3376;42.664;23.346;2023-02-18T08:38:36;95220.84;;;11.90;43.20
6680;BME280;3376;42.664;23.346;2023-02-18T08:41:04;95220.34;;;12.02;43.98
6680;BME280;3376;42.664;23.346;2023-02-18T08:43:31;95213.50;;;12.09;43.12
6680;BME280;3376;42.664;23.346;2023-02-18T08:46:00;95203.19;;;11.85;42.91
6680;BME280;3376;42.664;23.346;2023-02-18T08:48:27;95190.59;;;11.50;44.45
6680;BME280;3376;42.664;23.346;2023-02-18T08:50:54;95216.19;;;11.77;45.28
6680;BME280;3376;42.664;23.346;2023-02-18T08:53:21;95212.91;;;11.83;49.19
6680;BME280;3376;42.664;23.346;2023-02-18T08:55:48;95211.75;;;11.94;47.00
6680;BME280;3376;42.664;23.346;2023-02-18T08:58:15;95207.00;;;12.13;45.58
6680;BME280;3376;42.664;23.346;2023-02-18T09:00:43;95221.50;;;12.38;46.04
6680;BME280;3376;42.664;23.346;2023-02-18T09:03:12;95216.31;;;12.38;42.81
6680;BME280;3376;42.664;23.346;2023-02-18T09:05:39;95225.72;;;12.39;43.73
6680;BME280;3376;42.664;23.346;2023-02-18T09:08:06;95225.16;;;12.52;42.73
6680;BME280;3376;42.664;23.346;2023-02-18T09:10:33;95207.44;;;12.55;44.48
6680;BME280;3376;42.664;23.346;2023-02-18T09:13:00;95215.81;;;12.73;45.15
6680;BME280;3376;42.664;23.346;2023-02-18T09:15:27;95227.25;;;13.18;45.22
6680;BME280;3376;42.664;23.346;2023-02-18T09:17:54;95225.56;;;13.25;42.91
6680;BME280;3376;42.664;23.346;2023-02-18T09:20:22;95196.44;;;13.07;43.01
6680;BME280;3376;42.664;23.346;2023-02-18T09:22:49;95222.25;;;13.31;42.98
6680;BME280;3376;42.664;23.346;2023-02-18T09:25:15;95200.56;;;13.38;42.90
6680;BME280;3376;42.664;23.346;2023-02-18T09:27:42;95227.63;;;13.52;41.28
6680;BME280;3376;42.664;23.346;2023-02-18T09:30:09;95207.28;;;13.99;40.78
6680;BME280;3376;42.664;23.346;2023-02-18T09:32:36;95200.78;;;14.68;38.90
6680;BME280;3376;42.664;23.346;2023-02-18T09:35:04;95136.56;;;14.88;38.53
6680;BME280;3376;42.664;23.346;2023-02-18T09:37:32;95183.94;;;16.10;37.35
6680;BME280;3376;42.664;23.346;2023-02-18T09:39:59;95162.38;;;16.42;35.91
6680;BME280;3376;42.664;23.346;2023-02-18T09:42:29;95184.13;;;16.96;34.25
6680;BME280;3376;42.664;23.346;2023-02-18T09:45:00;95201.75;;;17.48;33.61
6680;BME280;3376;42.664;23.346;2023-02-18T09:47:32;95183.75;;;18.10;32.43
6680;BME280;3376;42.664;23.346;2023-02-18T09:50:06;95208.13;;;18.24;31.72
6680;BME280;3376;42.664;23.346;2023-02-18T09:52:36;95199.78;;;18.59;31.67
6680;BME280;3376;42.664;23.346;2023-02-18T09:55:16;95177.56;;;18.62;31.17
6680;BME280;3376;42.664;23.346;2023-02-18T09:57:46;95203.94;;;18.73;30.63
6680;BME280;3376;42.664;23.346;2023-02-18T10:00:17;95147.00;;;18.23;30.48
6680;BME280;3376;42.664;23.346;2023-02-18T10:02:53;95200.41;;;18.48;30.68
6680;BME280;3376;42.664;23.346;2023-02-18T10:05:21;95192.81;;;18.14;31.39
6680;BME280;3376;42.664;23.346;2023-02-18T10:07:53;95191.59;;;18.10;31.27
6680;BME280;3376;42.664;23.346;2023-02-18T10:10:26;95192.69;;;17.70;31.51
6680;BME280;3376;42.664;23.346;2023-02-18T10:12:55;95179.56;;;17.77;31.75
6680;BME280;3376;42.664;23.346;2023-02-18T10:15:27;95177.03;;;18.40;30.94
6680;BME280;3376;42.664;23.346;2023-02-18T10:17:55;95172.44;;;19.11;30.28
6680;BME280;3376;42.664;23.346;2023-02-18T10:20:25;95170.25;;;19.88;29.17
6680;BME280;3376;42.664;23.346;2023-02-18T10:22:57;94999.38;;;19.46;28.20
6680;BME280;3376;42.664;23.346;2023-02-18T10:25:26;95186.75;;;21.22;26.98
6680;BME280;3376;42.664;23.346;2023-02-18T10:27:53;95180.16;;;21.31;26.80
6680;BME280;3376;42.664;23.346;2023-02-18T10:30:23;95178.16;;;21.68;26.01
6680;BME280;3376;42.664;23.346;2023-02-18T10:32:54;95159.59;;;20.92;26.60
6680;BME280;3376;42.664;23.346;2023-02-18T10:35:24;95173.47;;;21.17;26.54
6680;BME280;3376;42.664;23.346;2023-02-18T10:38:03;95148.25;;;21.21;26.26
6680;BME280;3376;42.664;23.346;2023-02-18T10:40:41;95177.00;;;21.75;25.98
6680;BME280;3376;42.664;23.346;2023-02-18T10:43:21;95148.94;;;22.15;25.38
6680;BME280;3376;42.664;23.346;2023-02-18T10:45:55;94971.50;;;20.11;26.00
6680;BME280;3376;42.664;23.346;2023-02-18T10:48:38;95153.47;;;19.89;27.34
6680;BME280;3376;42.664;23.346;2023-02-18T10:51:14;95146.19;;;19.67;27.62
6680;BME280;3376;42.664;23.346;2023-02-18T10:53:44;95135.38;;;19.57;28.40
6680;BME280;3376;42.664;23.346;2023-02-18T10:56:31;95138.47;;;19.72;28.18
6680;BME280;3376;42.664;23.346;2023-02-18T10:59:01;95131.84;;;20.06;27.90
6680;BME280;3376;42.664;23.346;2023-02-18T11:01:30;95123.84;;;20.37;27.38
6680;BME280;3376;42.664;23.346;2023-02-18T11:04:06;95128.94;;;20.97;26.65
6680;BME280;3376;42.664;23.346;2023-02-18T11:06:38;95118.91;;;20.88;26.41
6680;BME280;3376;42.664;23.346;2023-02-18T11:09:25;95108.41;;;20.40;26.64
6680;BME280;3376;42.664;23.346;2023-02-18T11:11:58;95114.47;;;19.86;27.60
6680;BME280;3376;42.664;23.346;2023-02-18T11:14:36;95101.91;;;20.43;27.00
6680;BME280;3376;42.664;23.346;2023-02-18T11:17:09;95096.94;;;20.82;26.44
6680;BME280;3376;42.664;23.346;2023-02-18T11:19:40;95100.59;;;20.93;26.23
6680;BME280;3376;42.664;23.346;2023-02-18T11:22:13;95059.69;;;20.49;26.45
6680;BME280;3376;42.664;23.346;2023-02-18T11:24:43;95081.47;;;20.56;26.66
6680;BME280;3376;42.664;23.346;2023-02-18T11:27:19;95082.63;;;20.31;27.20
6680;BME280;3376;42.664;23.346;2023-02-18T11:29:50;95061.84;;;20.41;26.44
6680;BME280;3376;42.664;23.346;2023-02-18T11:32:17;95066.75;;;20.67;26.24
6680;BME280;3376;42.664;23.346;2023-02-18T11:34:45;95062.47;;;20.84;26.72
6680;BME280;3376;42.664;23.346;2023-02-18T11:37:20;95055.38;;;20.96;25.51
6680;BME280;3376;42.664;23.346;2023-02-18T11:39:52;95049.94;;;21.09;26.26
6680;BME280;3376;42.664;23.346;2023-02-18T11:42:21;95015.13;;;21.30;25.82
6680;BME280;3376;42.664;23.346;2023-02-18T11:44:52;95040.56;;;21.59;25.02
6680;BME280;3376;42.664;23.346;2023-02-18T11:47:24;95035.72;;;21.56;24.07
6680;BME280;3376;42.664;23.346;2023-02-18T11:50:00;95024.84;;;21.41;24.72
6680;BME280;3376;42.664;23.346;2023-02-18T11:52:32;95039.19;;;21.57;24.10
6680;BME280;3376;42.664;23.346;2023-02-18T11:55:03;95023.69;;;21.72;24.07
6680;BME280;3376;42.664;23.346;2023-02-18T11:57:31;94819.69;;;20.64;24.05
6680;BME280;3376;42.664;23.346;2023-02-18T11:59:59;95016.94;;;21.64;24.65
6680;BME280;3376;42.664;23.346;2023-02-18T12:02:31;94988.63;;;21.48;24.58
6680;BME280;3376;42.664;23.346;2023-02-18T12:05:02;94995.28;;;21.39;24.98
6680;BME280;3376;42.664;23.346;2023-02-18T12:07:38;94973.63;;;21.37;25.42
6680;BME280;3376;42.664;23.346;2023-02-18T12:10:13;94994.69;;;21.60;24.88
6680;BME280;3376;42.664;23.346;2023-02-18T12:12:45;94988.06;;;21.58;26.01
6680;BME280;3376;42.664;23.346;2023-02-18T12:15:16;94973.75;;;21.42;24.90
6680;BME280;3376;42.664;23.346;2023-02-18T12:17:55;94993.31;;;21.46;24.60
6680;BME280;3376;42.664;23.346;2023-02-18T12:20:44;94977.06;;;21.49;24.76
6680;BME280;3376;42.664;23.346;2023-02-18T12:23:20;94963.78;;;21.33;25.13
6680;BME280;3376;42.664;23.346;2023-02-18T12:25:55;94986.91;;;20.96;26.33
6680;BME280;3376;42.664;23.346;2023-02-18T12:28:38;94960.47;;;20.50;29.41
6680;BME280;3376;42.664;23.346;2023-02-18T12:31:25;94985.00;;;20.62;27.22
6680;BME280;3376;42.664;23.346;2023-02-18T12:34:04;94978.97;;;20.43;28.33
6680;BME280;3376;42.664;23.346;2023-02-18T12:36:45;94970.13;;;20.67;29.93
6680;BME280;3376;42.664;23.346;2023-02-18T12:39:25;94962.81;;;20.81;28.44
6680;BME280;3376;42.664;23.346;2023-02-18T12:45:07;94960.56;;;21.19;28.21
6680;BME280;3376;42.664;23.346;2023-02-18T12:48:06;94941.56;;;21.29;28.29
6680;BME280;3376;42.664;23.346;2023-02-18T12:51:03;94944.38;;;21.50;28.08
6680;BME280;3376;42.664;23.346;2023-02-18T12:53:43;94939.59;;;21.47;27.58
6680;BME280;3376;42.664;23.346;2023-02-18T12:56:50;94939.25;;;21.09;26.55
6680;BME280;3376;42.664;23.346;2023-02-18T13:02:41;94952.66;;;21.19;28.99
6680;BME280;3376;42.664;23.346;2023-02-18T13:05:23;94951.19;;;21.23;28.51
6680;BME280;3376;42.664;23.346;2023-02-18T13:08:03;94916.09;;;20.88;28.85
6680;BME280;3376;42.664;23.346;2023-02-18T13:10:55;94949.91;;;21.14;26.83
6680;BME280;3376;42.664;23.346;2023-02-18T13:13:30;94953.59;;;21.13;32.89
6680;BME280;3376;42.664;23.346;2023-02-18T13:16:03;94957.25;;;21.12;28.64
6680;BME280;3376;42.664;23.346;2023-02-18T13:18:33;94956.81;;;21.15;28.47
6680;BME280;3376;42.664;23.346;2023-02-18T13:21:03;94955.66;;;20.99;27.42
6680;BME280;3376;42.664;23.346;2023-02-18T13:23:33;94929.00;;;20.55;30.08
6680;BME280;3376;42.664;23.346;2023-02-18T13:26:03;94941.72;;;20.58;32.91
6680;BME280;3376;42.664;23.346;2023-02-18T13:28:36;94927.09;;;20.21;28.38
6680;BME280;3376;42.664;23.346;2023-02-18T13:31:18;94931.75;;;19.89;30.37
6680;BME280;3376;42.664;23.346;2023-02-18T13:33:53;94953.19;;;19.74;29.25
6680;BME280;3376;42.664;23.346;2023-02-18T13:36:33;94950.56;;;19.74;36.08
6680;BME280;3376;42.664;23.346;2023-02-18T13:39:05;94953.19;;;19.74;28.89
6680;BME280;3376;42.664;23.346;2023-02-18T13:41:37;94942.66;;;19.56;32.64
6680;BME280;3376;42.664;23.346;2023-02-18T13:44:08;94955.81;;;19.38;32.10
6680;BME280;3376;42.664;23.346;2023-02-18T13:46:48;94783.31;;;17.93;32.52